Machagai, Argentina
Current Conditions -  °F | °C
As of 3:00 PM on Friday 31 Oct 2014 (Local Time) from SARE Reporting Station
Broken Clouds Broken Clouds  
Wind Chill: 82°   Ceiling: 10000
Heat Index: 85°   Visibility: 6mi
Dew Point: 68°   Wind: 9mph
Humidity: 62%   Direction: 140°SE
Pressure: 29.77"   Gusts: NA
Location:  26.93°S, 60.05°W
Report Text: SARE 311800Z 14008KT 9999 FEW030 BKN100 BKN200 28/20 Q1008
Loading
Personal Weather Stations






























Interactive Weather Map
Tropical Storm Tracking
New forecast layout! Learn more

10-Day Weather Forecast

Advertisements
Track Severe Weather on mobile